createdAt,value
2023-05-27T00:00:28.746Z,3.70
2023-05-27T00:02:56.262Z,3.20
2023-05-27T00:05:23.764Z,4.00
2023-05-27T00:07:51.166Z,2.88
2023-05-27T00:10:18.693Z,2.70
2023-05-27T00:12:46.140Z,4.10
2023-05-27T00:15:13.834Z,3.60
2023-05-27T00:17:41.521Z,3.92
2023-05-27T00:20:11.155Z,3.80
2023-05-27T00:22:38.672Z,3.60
2023-05-27T00:25:06.668Z,4.47
2023-05-27T00:27:34.033Z,3.75
2023-05-27T00:30:01.516Z,3.53
2023-05-27T00:32:28.945Z,4.40
2023-05-27T00:34:56.313Z,3.50
2023-05-27T00:37:23.637Z,3.90
2023-05-27T00:39:51.075Z,5.28
2023-05-27T00:42:18.722Z,4.10
2023-05-27T00:44:46.204Z,4.07
2023-05-27T00:47:13.621Z,4.57
2023-05-27T00:49:41.186Z,4.45
2023-05-27T00:52:08.659Z,4.18
2023-05-27T00:54:36.157Z,4.05
2023-05-27T00:57:03.726Z,3.75
2023-05-27T00:59:31.340Z,4.63
2023-05-27T01:01:58.786Z,4.15
2023-05-27T01:04:27.221Z,4.75
2023-05-27T01:07:20.539Z,5.40
2023-05-27T01:09:56.810Z,3.85
2023-05-27T01:12:56.184Z,4.13
2023-05-27T01:15:24.676Z,4.60
2023-05-27T01:17:56.242Z,4.32
2023-05-27T01:20:25.290Z,5.13
2023-05-27T01:22:54.477Z,4.45
2023-05-27T01:25:22.479Z,4.03
2023-05-27T01:27:50.269Z,4.40
2023-05-27T01:30:17.959Z,4.30
2023-05-27T01:32:56.547Z,4.75
2023-05-27T01:35:45.584Z,4.07
2023-05-27T01:38:18.875Z,3.50
2023-05-27T01:40:47.085Z,3.85
2023-05-27T01:43:16.170Z,3.85
2023-05-27T01:45:44.433Z,3.80
2023-05-27T01:48:11.929Z,4.95
2023-05-27T01:50:39.744Z,4.07
2023-05-27T01:53:07.380Z,3.60
2023-05-27T01:55:35.318Z,3.03
2023-05-27T01:58:02.754Z,4.35
2023-05-27T02:00:30.936Z,4.03
2023-05-27T02:02:58.437Z,3.45
2023-05-27T02:05:25.875Z,3.95
2023-05-27T02:07:53.400Z,3.60
2023-05-27T02:10:20.903Z,4.03
2023-05-27T02:12:51.580Z,4.13
2023-05-27T02:15:19.111Z,4.72
2023-05-27T02:17:47.729Z,4.63
2023-05-27T02:20:16.749Z,3.88
2023-05-27T02:22:44.186Z,4.50
2023-05-27T02:25:13.437Z,4.60
2023-05-27T02:27:43.060Z,5.00
2023-05-27T02:30:11.466Z,5.10
2023-05-27T02:32:38.910Z,4.97
2023-05-27T02:35:06.808Z,4.53
2023-05-27T02:37:34.404Z,5.32
2023-05-27T02:40:01.770Z,4.43
2023-05-27T02:42:29.464Z,4.10
2023-05-27T02:44:57.201Z,4.10
2023-05-27T02:47:24.657Z,4.15
2023-05-27T02:49:52.125Z,3.50
2023-05-27T02:52:19.648Z,3.58
2023-05-27T02:54:46.988Z,4.03
2023-05-27T02:57:14.753Z,4.07
2023-05-27T02:59:45.266Z,3.63
2023-05-27T03:02:13.213Z,3.50
2023-05-27T03:04:41.515Z,4.82
2023-05-27T03:07:08.885Z,4.60
2023-05-27T03:09:36.316Z,4.97
2023-05-27T03:12:06.438Z,5.18
2023-05-27T03:14:34.032Z,4.63
2023-05-27T03:17:01.381Z,4.40
2023-05-27T03:19:28.797Z,5.38
2023-05-27T03:21:57.098Z,4.53
2023-05-27T03:24:27.210Z,5.07
2023-05-27T03:26:55.267Z,5.20
2023-05-27T03:29:22.629Z,4.68
2023-05-27T03:31:50.185Z,4.50
2023-05-27T03:34:19.421Z,5.10
2023-05-27T03:36:47.519Z,4.65
2023-05-27T03:39:17.563Z,5.35
2023-05-27T03:41:51.675Z,4.93
2023-05-27T03:44:19.116Z,5.88
2023-05-27T03:46:47.481Z,4.40
2023-05-27T03:49:15.321Z,4.32
2023-05-27T03:51:42.794Z,5.65
2023-05-27T03:54:10.211Z,4.20
2023-05-27T03:56:37.646Z,5.32
2023-05-27T03:59:05.053Z,5.10
2023-05-27T04:01:32.416Z,6.53
2023-05-27T04:03:59.895Z,4.55
2023-05-27T04:06:28.042Z,4.05
2023-05-27T04:08:56.160Z,5.07
2023-05-27T04:11:23.779Z,4.55
2023-05-27T04:13:52.005Z,4.63
2023-05-27T04:16:19.950Z,5.28
2023-05-27T04:18:49.989Z,4.65
2023-05-27T04:21:17.675Z,4.50
2023-05-27T04:23:45.131Z,4.30
2023-05-27T04:26:14.031Z,4.72
2023-05-27T04:28:46.520Z,4.47
2023-05-27T04:31:16.947Z,4.22
2023-05-27T04:33:47.899Z,4.55
2023-05-27T04:36:17.999Z,4.57
2023-05-27T04:39:12.829Z,4.20
2023-05-27T04:41:46.418Z,4.30
2023-05-27T04:44:31.863Z,4.10
2023-05-27T04:47:01.558Z,4.05
2023-05-27T04:49:29.115Z,5.25
2023-05-27T04:51:57.157Z,5.05
2023-05-27T04:54:25.797Z,4.28
2023-05-27T04:56:53.530Z,5.55
2023-05-27T04:59:30.769Z,4.90
2023-05-27T05:02:11.290Z,4.63
2023-05-27T05:04:54.119Z,4.32
2023-05-27T05:07:21.532Z,4.85
2023-05-27T05:09:51.175Z,5.35
2023-05-27T05:12:27.189Z,5.43
2023-05-27T05:14:55.130Z,6.10
2023-05-27T05:17:25.337Z,5.38
2023-05-27T05:19:56.255Z,6.03
2023-05-27T05:22:29.738Z,5.22
2023-05-27T05:24:57.193Z,5.38
2023-05-27T05:27:33.686Z,5.55
2023-05-27T05:30:02.170Z,5.40
2023-05-27T05:32:29.577Z,5.50
2023-05-27T05:34:58.019Z,4.65
2023-05-27T05:41:40.759Z,4.38
2023-05-27T05:44:08.197Z,4.70
2023-05-27T05:46:35.670Z,5.40
2023-05-27T05:49:04.818Z,4.72
2023-05-27T05:51:39.932Z,3.95
2023-05-27T05:54:08.255Z,4.38
2023-05-27T05:56:42.276Z,4.57
2023-05-27T05:59:10.027Z,4.45
2023-05-27T06:01:37.539Z,3.70
2023-05-27T06:04:07.950Z,4.03
2023-05-27T06:06:41.176Z,3.63
2023-05-27T06:12:07.604Z,3.70
2023-05-27T06:17:10.751Z,4.00
2023-05-27T06:19:38.191Z,4.78
2023-05-27T06:22:06.441Z,3.67
2023-05-27T06:24:52.277Z,2.72
2023-05-27T06:27:30.970Z,3.78
2023-05-27T06:29:58.537Z,4.00
2023-05-27T06:32:35.183Z,3.80
2023-05-27T06:35:02.871Z,4.10
2023-05-27T06:37:30.368Z,3.92
2023-05-27T06:39:57.837Z,3.85
2023-05-27T06:42:25.592Z,3.80
2023-05-27T06:45:07.174Z,4.20
2023-05-27T06:47:36.519Z,3.90
2023-05-27T06:50:04.467Z,4.82
2023-05-27T06:52:32.023Z,3.42
2023-05-27T06:55:22.814Z,3.47
2023-05-27T06:57:56.033Z,3.75
2023-05-27T07:01:09.705Z,3.65
2023-05-27T07:04:04.876Z,3.28
2023-05-27T07:06:50.183Z,3.92
2023-05-27T07:09:18.101Z,3.30
2023-05-27T07:11:45.998Z,3.40
2023-05-27T07:14:22.044Z,3.33
2023-05-27T07:16:49.491Z,3.20
2023-05-27T07:19:16.533Z,3.40
2023-05-27T07:21:51.888Z,3.60
2023-05-27T07:24:22.157Z,3.85
2023-05-27T07:26:50.477Z,4.07
2023-05-27T07:29:18.529Z,3.90
2023-05-27T07:31:55.485Z,3.58
2023-05-27T07:34:31.999Z,4.10
2023-05-27T07:36:59.460Z,4.75
2023-05-27T07:39:26.579Z,3.42
2023-05-27T07:41:53.706Z,3.40
2023-05-27T07:44:20.930Z,4.00
2023-05-27T07:46:48.156Z,3.50
2023-05-27T07:49:16.619Z,3.65
2023-05-27T07:51:55.930Z,2.95
2023-05-27T07:54:23.082Z,3.78
2023-05-27T07:56:50.172Z,3.80
2023-05-27T07:59:17.259Z,3.60
2023-05-27T08:01:44.508Z,3.65
2023-05-27T08:04:23.701Z,3.40
2023-05-27T08:07:10.421Z,3.10
2023-05-27T08:09:56.205Z,3.20
2023-05-27T08:12:41.566Z,3.42
2023-05-27T08:15:15.343Z,3.22
2023-05-27T08:18:03.155Z,3.28
2023-05-27T08:20:50.697Z,3.55
2023-05-27T08:23:46.370Z,2.60
2023-05-27T08:26:27.278Z,2.60
2023-05-27T08:29:16.003Z,3.33
2023-05-27T08:31:56.129Z,3.13
2023-05-27T08:34:24.479Z,2.83
2023-05-27T08:36:51.939Z,3.25
2023-05-27T08:39:19.524Z,3.22
2023-05-27T08:42:01.473Z,2.67
2023-05-27T08:44:28.529Z,3.10
2023-05-27T08:47:01.738Z,3.35
2023-05-27T08:49:34.992Z,2.80
2023-05-27T08:52:04.695Z,3.00
2023-05-27T08:54:32.348Z,2.90
2023-05-27T08:57:06.793Z,2.97
2023-05-27T08:59:37.889Z,3.03
2023-05-27T09:02:13.969Z,2.85
2023-05-27T09:04:42.518Z,3.40
2023-05-27T09:07:09.995Z,3.55
2023-05-27T09:09:37.094Z,2.67
2023-05-27T09:12:05.219Z,2.65
2023-05-27T09:14:33.218Z,2.85
2023-05-27T09:17:08.561Z,2.88
2023-05-27T09:19:36.202Z,2.97
2023-05-27T09:22:04.074Z,2.55
2023-05-27T09:24:31.003Z,3.08
2023-05-27T09:26:58.013Z,3.00
2023-05-27T09:29:26.872Z,3.00
2023-05-27T09:31:57.901Z,3.33
2023-05-27T09:34:25.143Z,3.28
2023-05-27T09:36:53.057Z,3.35
2023-05-27T09:39:23.382Z,3.00
2023-05-27T09:41:59.625Z,2.65
2023-05-27T09:44:31.340Z,2.95
2023-05-27T09:47:01.836Z,2.63
2023-05-27T09:49:33.884Z,3.67
2023-05-27T09:52:02.625Z,2.92
2023-05-27T09:54:31.093Z,2.95
2023-05-27T09:56:59.601Z,2.55
2023-05-27T09:59:27.594Z,2.67
2023-05-27T10:01:55.910Z,3.38
2023-05-27T10:04:23.762Z,3.17
2023-05-27T10:06:52.449Z,3.10
2023-05-27T10:09:19.367Z,2.90
2023-05-27T10:11:47.595Z,2.63
2023-05-27T10:14:17.025Z,3.00
2023-05-27T10:16:58.908Z,2.58
2023-05-27T10:19:25.931Z,2.95
2023-05-27T10:21:55.514Z,2.67
2023-05-27T10:24:34.203Z,2.80
2023-05-27T10:27:06.929Z,2.47
2023-05-27T10:29:40.592Z,3.05
2023-05-27T10:32:08.922Z,2.90
2023-05-27T10:34:38.305Z,3.17
2023-05-27T10:37:05.639Z,3.25
2023-05-27T10:39:32.680Z,2.65
2023-05-27T10:41:59.855Z,2.72
2023-05-27T10:44:33.900Z,2.85
2023-05-27T10:47:29.715Z,2.25
2023-05-27T10:49:58.582Z,2.17
2023-05-27T10:52:32.600Z,2.70
2023-05-27T10:55:02.741Z,2.20
2023-05-27T10:57:32.039Z,2.55
2023-05-27T11:00:05.941Z,2.60
2023-05-27T11:02:34.279Z,2.45
2023-05-27T11:05:01.644Z,2.72
2023-05-27T11:07:28.563Z,2.78
2023-05-27T11:09:56.444Z,2.55
2023-05-27T11:12:25.489Z,2.83
2023-05-27T11:14:56.402Z,2.70
2023-05-27T11:17:24.948Z,2.17
2023-05-27T11:19:52.515Z,2.28
2023-05-27T11:22:20.538Z,2.55
2023-05-27T11:25:04.372Z,2.67
2023-05-27T11:27:40.408Z,2.15
2023-05-27T11:30:13.565Z,2.50
2023-05-27T11:32:48.142Z,2.20
2023-05-27T11:37:55.157Z,2.40
2023-05-27T11:40:22.326Z,2.17
2023-05-27T11:42:50.462Z,2.45
2023-05-27T11:45:23.314Z,2.30
2023-05-27T11:47:52.622Z,2.33
2023-05-27T11:50:22.383Z,2.78
2023-05-27T11:52:59.054Z,2.50
2023-05-27T11:55:26.384Z,2.75
2023-05-27T11:57:53.605Z,2.30
2023-05-27T12:00:23.908Z,2.70
2023-05-27T12:02:51.254Z,2.53
2023-05-27T12:07:48.654Z,2.70
2023-05-27T12:10:15.880Z,2.85
2023-05-27T12:12:45.312Z,2.00
2023-05-27T12:15:12.291Z,2.60
2023-05-27T12:17:39.286Z,2.28
2023-05-27T12:20:07.448Z,2.45
2023-05-27T12:22:34.613Z,2.20
2023-05-27T12:25:01.575Z,2.72
2023-05-27T12:27:29.237Z,2.83
2023-05-27T12:30:04.507Z,2.42
2023-05-27T12:32:31.630Z,2.20
2023-05-27T12:34:58.615Z,2.38
2023-05-27T12:37:26.049Z,2.50
2023-05-27T12:39:53.038Z,2.50
2023-05-27T12:42:20.147Z,2.35
2023-05-27T12:44:47.419Z,2.10
2023-05-27T12:47:14.575Z,2.35
2023-05-27T12:49:43.177Z,2.50
2023-05-27T12:52:10.357Z,2.10
2023-05-27T12:54:37.322Z,2.80
2023-05-27T12:57:06.158Z,2.40
2023-05-27T12:59:34.467Z,2.15
2023-05-27T13:02:01.476Z,2.20
2023-05-27T13:04:28.719Z,2.40
2023-05-27T13:06:56.080Z,2.17
2023-05-27T13:09:23.164Z,2.40
2023-05-27T13:11:50.338Z,2.65
2023-05-27T13:14:17.857Z,2.78
2023-05-27T13:16:44.888Z,2.05
2023-05-27T13:19:12.096Z,2.55
2023-05-27T13:21:39.610Z,2.50
2023-05-27T13:24:06.810Z,2.65
2023-05-27T13:26:34.319Z,2.20
2023-05-27T13:29:01.516Z,2.90
2023-05-27T13:31:28.708Z,2.05
2023-05-27T13:33:55.832Z,2.20
2023-05-27T13:36:23.448Z,2.40
2023-05-27T13:38:50.673Z,2.75
2023-05-27T13:41:17.717Z,2.40
2023-05-27T13:43:44.675Z,2.38
2023-05-27T13:46:11.598Z,2.10
2023-05-27T13:48:38.724Z,2.30
2023-05-27T13:51:06.942Z,3.47
2023-05-27T13:53:33.959Z,2.28
2023-05-27T13:56:01.371Z,2.67
2023-05-27T13:58:29.645Z,2.33
2023-05-27T14:00:56.721Z,2.72
2023-05-27T14:03:24.022Z,1.85
2023-05-27T14:05:52.560Z,2.38
2023-05-27T14:08:19.822Z,2.33
2023-05-27T14:10:46.743Z,2.20
2023-05-27T14:13:14.631Z,2.20
2023-05-27T14:15:41.623Z,2.28
2023-05-27T14:18:09.217Z,2.78
2023-05-27T14:20:36.761Z,2.30
2023-05-27T14:23:06.111Z,2.50
2023-05-27T14:25:33.161Z,2.65
2023-05-27T14:28:05.240Z,2.90
2023-05-27T14:30:41.522Z,2.30
2023-05-27T14:33:09.704Z,2.60
2023-05-27T14:35:37.837Z,2.63
2023-05-27T14:38:06.494Z,2.65
2023-05-27T14:40:34.795Z,2.70
2023-05-27T14:43:01.854Z,2.35
2023-05-27T14:45:28.992Z,2.28
2023-05-27T14:47:56.162Z,2.13
2023-05-27T14:50:24.692Z,2.80
2023-05-27T14:53:13.977Z,2.80
2023-05-27T14:55:41.004Z,2.50
2023-05-27T14:58:08.067Z,2.97
2023-05-27T15:00:35.107Z,2.33
2023-05-27T15:03:02.243Z,2.55
2023-05-27T15:05:29.387Z,6.25
2023-05-27T15:07:56.462Z,3.40
2023-05-27T15:10:23.855Z,2.60
2023-05-27T15:12:52.289Z,2.85
2023-05-27T15:15:25.236Z,5.78
2023-05-27T15:17:52.354Z,3.72
2023-05-27T15:20:19.571Z,8.90
2023-05-27T15:22:47.344Z,2.60
2023-05-27T15:25:15.223Z,2.50
2023-05-27T15:27:42.321Z,2.00
2023-05-27T15:30:09.952Z,3.08
2023-05-27T15:32:37.703Z,3.22
2023-05-27T15:35:06.520Z,2.50
2023-05-27T15:37:33.628Z,2.45
2023-05-27T15:40:01.010Z,2.47
2023-05-27T15:42:28.077Z,2.17
2023-05-27T15:44:55.027Z,2.88
2023-05-27T15:47:22.291Z,2.72
2023-05-27T15:49:49.796Z,2.65
2023-05-27T15:52:17.398Z,2.20
2023-05-27T15:54:45.218Z,2.45
2023-05-27T15:57:13.344Z,2.42
2023-05-27T15:59:41.738Z,2.30
2023-05-27T16:02:11.506Z,2.40
2023-05-27T16:04:38.762Z,2.50
2023-05-27T16:07:06.780Z,2.60
2023-05-27T16:09:34.460Z,2.30
2023-05-27T16:12:02.868Z,2.20
2023-05-27T16:14:48.457Z,2.70
2023-05-27T16:17:31.700Z,2.38
2023-05-27T16:19:59.078Z,2.30
2023-05-27T16:22:26.276Z,2.40
2023-05-27T16:25:03.160Z,2.30
2023-05-27T16:37:59.887Z,2.67
2023-05-27T16:49:41.309Z,2.80
2023-05-27T16:53:09.006Z,2.30
2023-05-27T16:55:45.329Z,2.72
2023-05-27T17:04:36.728Z,2.75
2023-05-27T17:07:45.855Z,2.50
2023-05-27T17:20:44.588Z,3.15
2023-05-27T17:32:40.377Z,3.42
2023-05-27T17:35:47.426Z,3.50
2023-05-27T17:38:34.499Z,3.67
2023-05-27T17:41:38.907Z,3.80
2023-05-27T17:44:06.700Z,3.17
2023-05-27T17:49:48.348Z,3.10
2023-05-27T17:52:21.447Z,2.58
2023-05-27T17:55:09.162Z,4.32
2023-05-27T17:58:02.419Z,6.00
2023-05-27T18:00:32.964Z,7.18
2023-05-27T18:03:37.245Z,7.05
2023-05-27T18:06:08.808Z,7.20
2023-05-27T18:08:41.196Z,7.97
2023-05-27T18:11:28.024Z,7.82
2023-05-27T18:14:06.779Z,6.80
2023-05-27T18:16:39.803Z,5.68
2023-05-27T18:22:54.398Z,3.40
2023-05-27T18:25:28.477Z,3.10
2023-05-27T18:46:39.057Z,2.33
2023-05-27T18:49:07.320Z,2.17
2023-05-27T18:51:36.231Z,2.65
2023-05-27T18:54:03.768Z,2.50
2023-05-27T18:56:37.169Z,2.25
2023-05-27T19:02:30.074Z,3.10
2023-05-27T19:05:05.701Z,3.10
2023-05-27T19:07:55.549Z,2.78
2023-05-27T19:10:46.333Z,2.90
2023-05-27T19:41:13.049Z,3.63
2023-05-27T19:43:43.548Z,2.65
2023-05-27T19:46:11.625Z,3.60
2023-05-27T19:48:39.580Z,3.20
2023-05-27T19:51:38.564Z,3.35
2023-05-27T19:54:14.689Z,3.53
2023-05-27T19:56:42.441Z,3.30
2023-05-27T19:59:10.294Z,3.17
2023-05-27T20:01:40.815Z,3.28
